sensor_id;sensor_type;location;lat;lon;timestamp;P1;durP1;ratioP1;P2;durP2;ratioP2
78416;SDS011;67715;46.170;6.140;2023-02-13T00:04:09;30.00;;;14.30;;
78416;SDS011;67715;46.170;6.140;2023-02-13T00:09:00;31.53;;;13.47;;
78416;SDS011;67715;46.170;6.140;2023-02-13T00:11:26;32.45;;;14.35;;
78416;SDS011;67715;46.170;6.140;2023-02-13T00:16:17;26.67;;;12.93;;
78416;SDS011;67715;46.170;6.140;2023-02-13T00:21:09;30.80;;;12.57;;
78416;SDS011;67715;46.170;6.140;2023-02-13T00:23:36;28.95;;;15.02;;
78416;SDS011;67715;46.170;6.140;2023-02-13T00:26:10;27.05;;;15.25;;
78416;SDS011;67715;46.170;6.140;2023-02-13T00:28:36;31.08;;;15.07;;
78416;SDS011;67715;46.170;6.140;2023-02-13T00:33:31;27.63;;;13.73;;
78416;SDS011;67715;46.170;6.140;2023-02-13T00:38:33;29.65;;;13.75;;
78416;SDS011;67715;46.170;6.140;2023-02-13T00:40:59;30.10;;;15.32;;
78416;SDS011;67715;46.170;6.140;2023-02-13T00:45:49;33.03;;;13.87;;
78416;SDS011;67715;46.170;6.140;2023-02-13T00:50:40;27.45;;;14.40;;
78416;SDS011;67715;46.170;6.140;2023-02-13T00:53:05;28.73;;;15.53;;
78416;SDS011;67715;46.170;6.140;2023-02-13T00:57:56;27.53;;;13.97;;
78416;SDS011;67715;46.170;6.140;2023-02-13T01:02:47;28.07;;;14.13;;
78416;SDS011;67715;46.170;6.140;2023-02-13T01:07:38;30.10;;;13.77;;
78416;SDS011;67715;46.170;6.140;2023-02-13T01:12:29;27.30;;;12.82;;
78416;SDS011;67715;46.170;6.140;2023-02-13T01:17:20;30.15;;;14.77;;
78416;SDS011;67715;46.170;6.140;2023-02-13T01:22:10;30.87;;;13.73;;
78416;SDS011;67715;46.170;6.140;2023-02-13T01:24:36;29.97;;;15.00;;
78416;SDS011;67715;46.170;6.140;2023-02-13T01:27:01;39.03;;;17.33;;
78416;SDS011;67715;46.170;6.140;2023-02-13T01:31:52;28.85;;;13.57;;
78416;SDS011;67715;46.170;6.140;2023-02-13T01:36:43;22.20;;;11.67;;
78416;SDS011;67715;46.170;6.140;2023-02-13T01:41:36;27.10;;;13.68;;
78416;SDS011;67715;46.170;6.140;2023-02-13T01:46:29;23.45;;;12.20;;
78416;SDS011;67715;46.170;6.140;2023-02-13T01:49:02;26.67;;;12.82;;
78416;SDS011;67715;46.170;6.140;2023-02-13T01:51:33;26.63;;;13.98;;
78416;SDS011;67715;46.170;6.140;2023-02-13T01:56:56;21.38;;;11.48;;
78416;SDS011;67715;46.170;6.140;2023-02-13T01:59:24;24.33;;;13.02;;
78416;SDS011;67715;46.170;6.140;2023-02-13T02:01:53;27.42;;;14.90;;
78416;SDS011;67715;46.170;6.140;2023-02-13T02:04:24;29.98;;;14.88;;
78416;SDS011;67715;46.170;6.140;2023-02-13T02:06:57;27.67;;;14.82;;
78416;SDS011;67715;46.170;6.140;2023-02-13T02:09:27;28.02;;;14.00;;
78416;SDS011;67715;46.170;6.140;2023-02-13T02:14:29;26.60;;;14.38;;
78416;SDS011;67715;46.170;6.140;2023-02-13T02:22:09;28.88;;;14.07;;
78416;SDS011;67715;46.170;6.140;2023-02-13T02:24:44;29.10;;;14.95;;
78416;SDS011;67715;46.170;6.140;2023-02-13T02:29:56;31.63;;;15.25;;
78416;SDS011;67715;46.170;6.140;2023-02-13T02:32:39;31.40;;;15.93;;
78416;SDS011;67715;46.170;6.140;2023-02-13T02:37:52;34.42;;;15.95;;
78416;SDS011;67715;46.170;6.140;2023-02-13T02:42:56;31.45;;;16.58;;
78416;SDS011;67715;46.170;6.140;2023-02-13T02:48:37;31.70;;;15.00;;
78416;SDS011;67715;46.170;6.140;2023-02-13T02:51:32;32.22;;;15.27;;
78416;SDS011;67715;46.170;6.140;2023-02-13T02:54:12;27.77;;;13.95;;
78416;SDS011;67715;46.170;6.140;2023-02-13T02:57:02;32.67;;;14.27;;
78416;SDS011;67715;46.170;6.140;2023-02-13T02:59:31;28.73;;;14.65;;
78416;SDS011;67715;46.170;6.140;2023-02-13T03:02:16;30.10;;;15.35;;
78416;SDS011;67715;46.170;6.140;2023-02-13T03:05:16;29.95;;;16.40;;
78416;SDS011;67715;46.170;6.140;2023-02-13T03:08:03;29.95;;;15.70;;
78416;SDS011;67715;46.170;6.140;2023-02-13T03:13:15;24.77;;;12.43;;
78416;SDS011;67715;46.170;6.140;2023-02-13T03:15:53;26.58;;;13.32;;
78416;SDS011;67715;46.170;6.140;2023-02-13T03:18:42;27.55;;;13.10;;
78416;SDS011;67715;46.170;6.140;2023-02-13T03:24:36;26.98;;;13.35;;
78416;SDS011;67715;46.170;6.140;2023-02-13T03:29:43;28.23;;;15.38;;
78416;SDS011;67715;46.170;6.140;2023-02-13T03:35:20;25.75;;;15.10;;
78416;SDS011;67715;46.170;6.140;2023-02-13T03:38:19;25.35;;;12.63;;
78416;SDS011;67715;46.170;6.140;2023-02-13T03:40:50;26.85;;;13.82;;
78416;SDS011;67715;46.170;6.140;2023-02-13T03:46:35;33.85;;;15.90;;
78416;SDS011;67715;46.170;6.140;2023-02-13T03:49:03;27.83;;;13.77;;
78416;SDS011;67715;46.170;6.140;2023-02-13T03:57:07;22.25;;;11.52;;
78416;SDS011;67715;46.170;6.140;2023-02-13T03:59:51;29.02;;;13.38;;
78416;SDS011;67715;46.170;6.140;2023-02-13T04:02:19;31.25;;;13.77;;
78416;SDS011;67715;46.170;6.140;2023-02-13T04:04:52;24.77;;;13.75;;
78416;SDS011;67715;46.170;6.140;2023-02-13T04:07:18;29.50;;;15.68;;
78416;SDS011;67715;46.170;6.140;2023-02-13T04:12:59;29.20;;;14.57;;
78416;SDS011;67715;46.170;6.140;2023-02-13T04:15:37;27.50;;;13.85;;
78416;SDS011;67715;46.170;6.140;2023-02-13T04:18:10;26.23;;;13.75;;
78416;SDS011;67715;46.170;6.140;2023-02-13T04:20:39;26.23;;;13.50;;
78416;SDS011;67715;46.170;6.140;2023-02-13T04:25:33;22.98;;;11.77;;
78416;SDS011;67715;46.170;6.140;2023-02-13T04:28:00;26.75;;;13.13;;
78416;SDS011;67715;46.170;6.140;2023-02-13T04:32:50;23.63;;;11.43;;
78416;SDS011;67715;46.170;6.140;2023-02-13T04:35:16;30.10;;;14.20;;
78416;SDS011;67715;46.170;6.140;2023-02-13T04:37:42;31.17;;;15.45;;
78416;SDS011;67715;46.170;6.140;2023-02-13T04:40:08;30.00;;;14.97;;
78416;SDS011;67715;46.170;6.140;2023-02-13T04:42:34;24.75;;;13.23;;
78416;SDS011;67715;46.170;6.140;2023-02-13T04:44:59;29.63;;;14.02;;
78416;SDS011;67715;46.170;6.140;2023-02-13T04:49:50;28.33;;;13.17;;
78416;SDS011;67715;46.170;6.140;2023-02-13T04:54:40;23.10;;;10.93;;
78416;SDS011;67715;46.170;6.140;2023-02-13T04:57:06;28.05;;;13.25;;
78416;SDS011;67715;46.170;6.140;2023-02-13T04:59:31;30.17;;;14.37;;
78416;SDS011;67715;46.170;6.140;2023-02-13T05:04:23;26.63;;;13.43;;
78416;SDS011;67715;46.170;6.140;2023-02-13T05:06:49;28.98;;;12.75;;
78416;SDS011;67715;46.170;6.140;2023-02-13T05:09:14;30.77;;;16.05;;
78416;SDS011;67715;46.170;6.140;2023-02-13T05:11:40;32.33;;;15.67;;
78416;SDS011;67715;46.170;6.140;2023-02-13T05:14:05;27.70;;;13.83;;
78416;SDS011;67715;46.170;6.140;2023-02-13T05:18:55;31.07;;;13.40;;
78416;SDS011;67715;46.170;6.140;2023-02-13T05:24:05;24.55;;;12.00;;
78416;SDS011;67715;46.170;6.140;2023-02-13T05:28:56;25.98;;;12.52;;
78416;SDS011;67715;46.170;6.140;2023-02-13T05:31:40;26.83;;;12.45;;
78416;SDS011;67715;46.170;6.140;2023-02-13T05:34:05;33.33;;;16.07;;
78416;SDS011;67715;46.170;6.140;2023-02-13T05:36:30;31.70;;;14.90;;
78416;SDS011;67715;46.170;6.140;2023-02-13T05:38:56;32.73;;;14.93;;
78416;SDS011;67715;46.170;6.140;2023-02-13T05:41:21;35.77;;;16.20;;
78416;SDS011;67715;46.170;6.140;2023-02-13T05:43:46;30.03;;;13.97;;
78416;SDS011;67715;46.170;6.140;2023-02-13T05:46:12;34.17;;;16.67;;
78416;SDS011;67715;46.170;6.140;2023-02-13T05:51:02;30.37;;;13.10;;
78416;SDS011;67715;46.170;6.140;2023-02-13T05:53:28;27.10;;;15.23;;
78416;SDS011;67715;46.170;6.140;2023-02-13T05:55:54;29.90;;;14.23;;
78416;SDS011;67715;46.170;6.140;2023-02-13T05:58:19;26.77;;;14.65;;
78416;SDS011;67715;46.170;6.140;2023-02-13T06:00:45;29.25;;;13.82;;
78416;SDS011;67715;46.170;6.140;2023-02-13T06:03:11;30.08;;;14.45;;
78416;SDS011;67715;46.170;6.140;2023-02-13T06:05:36;28.73;;;14.07;;
78416;SDS011;67715;46.170;6.140;2023-02-13T06:08:01;34.10;;;15.20;;
78416;SDS011;67715;46.170;6.140;2023-02-13T06:10:27;24.45;;;13.73;;
78416;SDS011;67715;46.170;6.140;2023-02-13T06:12:52;31.97;;;15.57;;
78416;SDS011;67715;46.170;6.140;2023-02-13T06:15:17;28.50;;;14.63;;
78416;SDS011;67715;46.170;6.140;2023-02-13T06:17:43;30.87;;;14.73;;
78416;SDS011;67715;46.170;6.140;2023-02-13T06:22:33;24.80;;;12.27;;
78416;SDS011;67715;46.170;6.140;2023-02-13T06:24:59;28.23;;;14.70;;
78416;SDS011;67715;46.170;6.140;2023-02-13T06:27:24;30.10;;;15.13;;
78416;SDS011;67715;46.170;6.140;2023-02-13T06:32:14;25.13;;;13.00;;
78416;SDS011;67715;46.170;6.140;2023-02-13T06:34:40;32.07;;;14.60;;
78416;SDS011;67715;46.170;6.140;2023-02-13T06:37:05;29.70;;;13.97;;
78416;SDS011;67715;46.170;6.140;2023-02-13T06:39:30;29.43;;;13.93;;
78416;SDS011;67715;46.170;6.140;2023-02-13T06:41:56;28.57;;;15.23;;
78416;SDS011;67715;46.170;6.140;2023-02-13T06:46:46;24.27;;;11.77;;
78416;SDS011;67715;46.170;6.140;2023-02-13T06:49:11;27.07;;;13.27;;
78416;SDS011;67715;46.170;6.140;2023-02-13T06:51:37;30.70;;;15.30;;
78416;SDS011;67715;46.170;6.140;2023-02-13T06:56:27;25.93;;;13.97;;
78416;SDS011;67715;46.170;6.140;2023-02-13T06:58:53;29.90;;;13.67;;
78416;SDS011;67715;46.170;6.140;2023-02-13T07:01:18;27.03;;;15.30;;
78416;SDS011;67715;46.170;6.140;2023-02-13T07:03:43;38.40;;;19.17;;
78416;SDS011;67715;46.170;6.140;2023-02-13T07:08:35;25.53;;;13.43;;
78416;SDS011;67715;46.170;6.140;2023-02-13T07:11:00;30.40;;;15.57;;
78416;SDS011;67715;46.170;6.140;2023-02-13T07:13:25;28.93;;;14.73;;
78416;SDS011;67715;46.170;6.140;2023-02-13T07:15:50;31.53;;;15.20;;
78416;SDS011;67715;46.170;6.140;2023-02-13T07:20:41;27.67;;;14.07;;
78416;SDS011;67715;46.170;6.140;2023-02-13T07:23:06;31.20;;;15.73;;
78416;SDS011;67715;46.170;6.140;2023-02-13T07:25:32;30.43;;;15.80;;
78416;SDS011;67715;46.170;6.140;2023-02-13T07:28:01;38.47;;;18.50;;
78416;SDS011;67715;46.170;6.140;2023-02-13T07:30:30;31.50;;;16.05;;
78416;SDS011;67715;46.170;6.140;2023-02-13T07:33:00;34.22;;;18.05;;
78416;SDS011;67715;46.170;6.140;2023-02-13T07:35:26;33.17;;;17.38;;
78416;SDS011;67715;46.170;6.140;2023-02-13T07:37:54;32.10;;;16.50;;
78416;SDS011;67715;46.170;6.140;2023-02-13T07:40:20;33.58;;;17.48;;
78416;SDS011;67715;46.170;6.140;2023-02-13T07:45:10;33.30;;;15.20;;
78416;SDS011;67715;46.170;6.140;2023-02-13T07:47:36;38.10;;;16.77;;
78416;SDS011;67715;46.170;6.140;2023-02-13T07:50:01;34.67;;;16.93;;
78416;SDS011;67715;46.170;6.140;2023-02-13T07:52:29;34.85;;;17.13;;
78416;SDS011;67715;46.170;6.140;2023-02-13T07:57:20;31.77;;;14.60;;
78416;SDS011;67715;46.170;6.140;2023-02-13T08:02:11;28.73;;;14.07;;
78416;SDS011;67715;46.170;6.140;2023-02-13T08:04:38;34.95;;;17.40;;
78416;SDS011;67715;46.170;6.140;2023-02-13T08:07:03;37.15;;;17.50;;
78416;SDS011;67715;46.170;6.140;2023-02-13T08:12:12;35.08;;;16.48;;
78416;SDS011;67715;46.170;6.140;2023-02-13T08:17:03;37.13;;;18.17;;
78416;SDS011;67715;46.170;6.140;2023-02-13T08:21:53;36.70;;;17.83;;
78416;SDS011;67715;46.170;6.140;2023-02-13T08:26:44;40.40;;;19.00;;
78416;SDS011;67715;46.170;6.140;2023-02-13T08:31:35;42.78;;;18.83;;
78416;SDS011;67715;46.170;6.140;2023-02-13T08:34:00;42.78;;;20.25;;
78416;SDS011;67715;46.170;6.140;2023-02-13T08:38:51;37.30;;;19.07;;
78416;SDS011;67715;46.170;6.140;2023-02-13T08:43:42;38.05;;;18.98;;
78416;SDS011;67715;46.170;6.140;2023-02-13T08:48:33;38.40;;;18.10;;
78416;SDS011;67715;46.170;6.140;2023-02-13T08:53:23;35.60;;;17.50;;
78416;SDS011;67715;46.170;6.140;2023-02-13T08:55:52;39.17;;;19.47;;
78416;SDS011;67715;46.170;6.140;2023-02-13T08:58:18;43.35;;;22.45;;
78416;SDS011;67715;46.170;6.140;2023-02-13T09:00:44;40.45;;;20.00;;
78416;SDS011;67715;46.170;6.140;2023-02-13T09:03:09;39.83;;;20.03;;
78416;SDS011;67715;46.170;6.140;2023-02-13T09:05:35;38.03;;;21.10;;
78416;SDS011;67715;46.170;6.140;2023-02-13T09:08:00;43.20;;;21.40;;
78416;SDS011;67715;46.170;6.140;2023-02-13T09:10:27;38.20;;;20.90;;
78416;SDS011;67715;46.170;6.140;2023-02-13T09:12:53;42.80;;;23.45;;
78416;SDS011;67715;46.170;6.140;2023-02-13T09:15:18;45.38;;;22.05;;
78416;SDS011;67715;46.170;6.140;2023-02-13T09:17:44;44.40;;;22.73;;
78416;SDS011;67715;46.170;6.140;2023-02-13T09:20:09;41.90;;;24.03;;
78416;SDS011;67715;46.170;6.140;2023-02-13T09:22:37;47.75;;;23.52;;
78416;SDS011;67715;46.170;6.140;2023-02-13T09:25:03;46.28;;;22.88;;
78416;SDS011;67715;46.170;6.140;2023-02-13T09:27:29;38.33;;;23.15;;
78416;SDS011;67715;46.170;6.140;2023-02-13T09:29:54;46.00;;;24.98;;
78416;SDS011;67715;46.170;6.140;2023-02-13T09:32:20;40.55;;;23.40;;
78416;SDS011;67715;46.170;6.140;2023-02-13T09:34:45;41.77;;;22.20;;
78416;SDS011;67715;46.170;6.140;2023-02-13T09:37:10;49.67;;;25.00;;
78416;SDS011;67715;46.170;6.140;2023-02-13T09:39:36;45.00;;;25.30;;
78416;SDS011;67715;46.170;6.140;2023-02-13T09:42:01;49.40;;;24.80;;
78416;SDS011;67715;46.170;6.140;2023-02-13T09:44:37;43.05;;;25.77;;
78416;SDS011;67715;46.170;6.140;2023-02-13T09:49:45;46.45;;;24.70;;
78416;SDS011;67715;46.170;6.140;2023-02-13T09:52:12;50.45;;;26.02;;
78416;SDS011;67715;46.170;6.140;2023-02-13T09:54:38;48.70;;;25.42;;
78416;SDS011;67715;46.170;6.140;2023-02-13T09:57:12;46.47;;;25.35;;
78416;SDS011;67715;46.170;6.140;2023-02-13T09:59:47;50.13;;;26.48;;
78416;SDS011;67715;46.170;6.140;2023-02-13T10:08:23;46.88;;;23.88;;
78416;SDS011;67715;46.170;6.140;2023-02-13T10:16:07;49.20;;;26.60;;
78416;SDS011;67715;46.170;6.140;2023-02-13T10:18:47;49.10;;;25.75;;
78416;SDS011;67715;46.170;6.140;2023-02-13T10:21:14;52.92;;;26.65;;
78416;SDS011;67715;46.170;6.140;2023-02-13T10:23:53;50.42;;;27.45;;
78416;SDS011;67715;46.170;6.140;2023-02-13T10:26:26;48.45;;;26.80;;
78416;SDS011;67715;46.170;6.140;2023-02-13T10:29:08;52.47;;;26.98;;
78416;SDS011;67715;46.170;6.140;2023-02-13T10:31:54;57.55;;;28.45;;
78416;SDS011;67715;46.170;6.140;2023-02-13T10:34:21;51.72;;;27.75;;
78416;SDS011;67715;46.170;6.140;2023-02-13T10:36:49;51.03;;;28.50;;
78416;SDS011;67715;46.170;6.140;2023-02-13T10:39:25;52.33;;;25.83;;
78416;SDS011;67715;46.170;6.140;2023-02-13T10:44:38;49.10;;;26.58;;
78416;SDS011;67715;46.170;6.140;2023-02-13T10:58:27;48.30;;;26.67;;
78416;SDS011;67715;46.170;6.140;2023-02-13T11:01:04;47.17;;;27.80;;
78416;SDS011;67715;46.170;6.140;2023-02-13T11:03:33;57.53;;;28.05;;
78416;SDS011;67715;46.170;6.140;2023-02-13T11:05:59;50.88;;;26.85;;
78416;SDS011;67715;46.170;6.140;2023-02-13T11:08:39;54.47;;;27.15;;
78416;SDS011;67715;46.170;6.140;2023-02-13T11:16:47;53.08;;;26.63;;
78416;SDS011;67715;46.170;6.140;2023-02-13T11:19:16;48.35;;;28.13;;
78416;SDS011;67715;46.170;6.140;2023-02-13T11:21:43;44.92;;;25.50;;
78416;SDS011;67715;46.170;6.140;2023-02-13T11:24:17;46.53;;;25.77;;
78416;SDS011;67715;46.170;6.140;2023-02-13T11:26:48;40.53;;;24.27;;
78416;SDS011;67715;46.170;6.140;2023-02-13T11:29:16;43.38;;;26.08;;
78416;SDS011;67715;46.170;6.140;2023-02-13T11:31:45;42.00;;;26.27;;
78416;SDS011;67715;46.170;6.140;2023-02-13T11:34:26;43.00;;;24.40;;
78416;SDS011;67715;46.170;6.140;2023-02-13T11:36:54;41.50;;;25.20;;
78416;SDS011;67715;46.170;6.140;2023-02-13T11:39:34;42.08;;;24.50;;
78416;SDS011;67715;46.170;6.140;2023-02-13T11:41:59;40.67;;;25.27;;
78416;SDS011;67715;46.170;6.140;2023-02-13T11:44:28;49.83;;;26.30;;
78416;SDS011;67715;46.170;6.140;2023-02-13T11:46:56;42.25;;;25.30;;
78416;SDS011;67715;46.170;6.140;2023-02-13T11:49:29;44.67;;;26.20;;
78416;SDS011;67715;46.170;6.140;2023-02-13T11:51:59;44.42;;;26.13;;
78416;SDS011;67715;46.170;6.140;2023-02-13T11:56:52;50.10;;;29.70;;
78416;SDS011;67715;46.170;6.140;2023-02-13T11:59:22;47.38;;;26.23;;
78416;SDS011;67715;46.170;6.140;2023-02-13T12:02:03;44.85;;;26.92;;
78416;SDS011;67715;46.170;6.140;2023-02-13T12:04:37;47.75;;;26.77;;
78416;SDS011;67715;46.170;6.140;2023-02-13T12:07:04;49.15;;;27.20;;
78416;SDS011;67715;46.170;6.140;2023-02-13T12:09:38;45.97;;;26.25;;
78416;SDS011;67715;46.170;6.140;2023-02-13T12:12:03;47.03;;;25.98;;
78416;SDS011;67715;46.170;6.140;2023-02-13T12:14:30;42.28;;;24.33;;
78416;SDS011;67715;46.170;6.140;2023-02-13T12:17:08;44.70;;;25.88;;
78416;SDS011;67715;46.170;6.140;2023-02-13T12:19:39;43.92;;;26.50;;
78416;SDS011;67715;46.170;6.140;2023-02-13T12:22:29;44.88;;;24.08;;
78416;SDS011;67715;46.170;6.140;2023-02-13T12:25:18;42.20;;;24.10;;
78416;SDS011;67715;46.170;6.140;2023-02-13T12:30:42;42.40;;;24.70;;
78416;SDS011;67715;46.170;6.140;2023-02-13T12:36:04;41.92;;;24.13;;
78416;SDS011;67715;46.170;6.140;2023-02-13T12:38:44;40.78;;;23.88;;
78416;SDS011;67715;46.170;6.140;2023-02-13T12:41:19;41.58;;;23.00;;
78416;SDS011;67715;46.170;6.140;2023-02-13T13:01:13;40.92;;;24.98;;
78416;SDS011;67715;46.170;6.140;2023-02-13T13:12:49;40.10;;;24.42;;
78416;SDS011;67715;46.170;6.140;2023-02-13T13:15:33;38.58;;;25.55;;
78416;SDS011;67715;46.170;6.140;2023-02-13T13:18:13;40.90;;;23.75;;
78416;SDS011;67715;46.170;6.140;2023-02-13T13:23:31;38.97;;;23.48;;
78416;SDS011;67715;46.170;6.140;2023-02-13T13:28:57;39.45;;;23.52;;
78416;SDS011;67715;46.170;6.140;2023-02-13T13:31:24;37.67;;;24.50;;
78416;SDS011;67715;46.170;6.140;2023-02-13T13:33:51;40.47;;;24.73;;
78416;SDS011;67715;46.170;6.140;2023-02-13T13:36:30;40.38;;;24.98;;
78416;SDS011;67715;46.170;6.140;2023-02-13T13:39:02;44.40;;;24.38;;
78416;SDS011;67715;46.170;6.140;2023-02-13T13:44:50;41.22;;;24.55;;
78416;SDS011;67715;46.170;6.140;2023-02-13T13:50:20;42.10;;;26.08;;
78416;SDS011;67715;46.170;6.140;2023-02-13T13:55:58;38.65;;;23.52;;
78416;SDS011;67715;46.170;6.140;2023-02-13T13:58:37;37.75;;;23.13;;
78416;SDS011;67715;46.170;6.140;2023-02-13T14:03:46;41.17;;;23.98;;
78416;SDS011;67715;46.170;6.140;2023-02-13T14:06:13;40.63;;;24.60;;
78416;SDS011;67715;46.170;6.140;2023-02-13T14:13:53;42.65;;;24.70;;
78416;SDS011;67715;46.170;6.140;2023-02-13T14:19:23;35.70;;;22.38;;
78416;SDS011;67715;46.170;6.140;2023-02-13T14:22:40;37.85;;;23.73;;
78416;SDS011;67715;46.170;6.140;2023-02-13T14:24:53;39.55;;;24.73;;
78416;SDS011;67715;46.170;6.140;2023-02-13T14:27:30;40.20;;;25.10;;
78416;SDS011;67715;46.170;6.140;2023-02-13T14:29:56;43.17;;;25.30;;
78416;SDS011;67715;46.170;6.140;2023-02-13T14:32:30;40.33;;;26.02;;
78416;SDS011;67715;46.170;6.140;2023-02-13T14:35:15;41.15;;;24.80;;
78416;SDS011;67715;46.170;6.140;2023-02-13T14:37:48;38.55;;;23.58;;
78416;SDS011;67715;46.170;6.140;2023-02-13T14:42:42;41.92;;;25.85;;
78416;SDS011;67715;46.170;6.140;2023-02-13T14:45:13;41.22;;;24.75;;
78416;SDS011;67715;46.170;6.140;2023-02-13T14:47:45;40.97;;;24.23;;
78416;SDS011;67715;46.170;6.140;2023-02-13T14:50:17;43.75;;;25.35;;
78416;SDS011;67715;46.170;6.140;2023-02-13T14:52:45;42.95;;;24.77;;
78416;SDS011;67715;46.170;6.140;2023-02-13T14:55:13;46.83;;;25.17;;
78416;SDS011;67715;46.170;6.140;2023-02-13T14:57:48;41.58;;;25.30;;
78416;SDS011;67715;46.170;6.140;2023-02-13T15:02:58;44.05;;;24.48;;
78416;SDS011;67715;46.170;6.140;2023-02-13T15:05:33;42.75;;;25.85;;
78416;SDS011;67715;46.170;6.140;2023-02-13T15:13:15;44.80;;;25.13;;
78416;SDS011;67715;46.170;6.140;2023-02-13T15:15:42;45.60;;;24.27;;
78416;SDS011;67715;46.170;6.140;2023-02-13T15:18:10;44.67;;;25.10;;
78416;SDS011;67715;46.170;6.140;2023-02-13T15:20:42;45.00;;;25.73;;
78416;SDS011;67715;46.170;6.140;2023-02-13T15:23:13;41.85;;;23.95;;
78416;SDS011;67715;46.170;6.140;2023-02-13T15:25:45;40.10;;;24.67;;
78416;SDS011;67715;46.170;6.140;2023-02-13T15:28:20;43.83;;;22.88;;
78416;SDS011;67715;46.170;6.140;2023-02-13T15:31:01;41.17;;;25.88;;
78416;SDS011;67715;46.170;6.140;2023-02-13T15:33:50;41.25;;;24.33;;
78416;SDS011;67715;46.170;6.140;2023-02-13T15:36:19;40.95;;;23.63;;
78416;SDS011;67715;46.170;6.140;2023-02-13T15:38:59;41.10;;;25.13;;
78416;SDS011;67715;46.170;6.140;2023-02-13T15:41:31;41.28;;;25.33;;
78416;SDS011;67715;46.170;6.140;2023-02-13T15:43:58;42.05;;;24.67;;
78416;SDS011;67715;46.170;6.140;2023-02-13T15:48:54;44.40;;;26.00;;
78416;SDS011;67715;46.170;6.140;2023-02-13T15:51:23;50.35;;;26.70;;
78416;SDS011;67715;46.170;6.140;2023-02-13T15:53:52;43.55;;;24.83;;
78416;SDS011;67715;46.170;6.140;2023-02-13T15:56:19;47.25;;;25.60;;
78416;SDS011;67715;46.170;6.140;2023-02-13T15:58:44;45.40;;;24.50;;
78416;SDS011;67715;46.170;6.140;2023-02-13T16:01:10;43.70;;;24.77;;
78416;SDS011;67715;46.170;6.140;2023-02-13T16:03:36;43.95;;;24.05;;
78416;SDS011;67715;46.170;6.140;2023-02-13T16:06:03;41.95;;;23.63;;
78416;SDS011;67715;46.170;6.140;2023-02-13T16:08:31;44.45;;;24.95;;
78416;SDS011;67715;46.170;6.140;2023-02-13T16:14:03;40.05;;;23.60;;
78416;SDS011;67715;46.170;6.140;2023-02-13T16:19:33;44.55;;;24.60;;
78416;SDS011;67715;46.170;6.140;2023-02-13T16:24:48;44.15;;;22.67;;
78416;SDS011;67715;46.170;6.140;2023-02-13T16:27:15;42.05;;;23.75;;
78416;SDS011;67715;46.170;6.140;2023-02-13T16:29:50;38.80;;;23.00;;
78416;SDS011;67715;46.170;6.140;2023-02-13T16:32:32;42.45;;;22.80;;
78416;SDS011;67715;46.170;6.140;2023-02-13T16:35:16;44.50;;;24.25;;
78416;SDS011;67715;46.170;6.140;2023-02-13T16:37:55;40.70;;;22.40;;
78416;SDS011;67715;46.170;6.140;2023-02-13T16:51:22;45.13;;;24.75;;
78416;SDS011;67715;46.170;6.140;2023-02-13T16:54:01;43.10;;;26.35;;
78416;SDS011;67715;46.170;6.140;2023-02-13T16:56:43;45.05;;;25.17;;
78416;SDS011;67715;46.170;6.140;2023-02-13T16:59:30;42.85;;;25.38;;
78416;SDS011;67715;46.170;6.140;2023-02-13T17:02:01;46.10;;;25.67;;
78416;SDS011;67715;46.170;6.140;2023-02-13T17:04:48;44.30;;;23.88;;
78416;SDS011;67715;46.170;6.140;2023-02-13T17:07:19;51.67;;;27.10;;
78416;SDS011;67715;46.170;6.140;2023-02-13T17:09:56;45.20;;;25.80;;
78416;SDS011;67715;46.170;6.140;2023-02-13T17:12:23;45.72;;;26.30;;
78416;SDS011;67715;46.170;6.140;2023-02-13T17:14:49;45.13;;;26.23;;
78416;SDS011;67715;46.170;6.140;2023-02-13T17:17:16;46.70;;;26.30;;
78416;SDS011;67715;46.170;6.140;2023-02-13T17:19:46;50.80;;;27.55;;
78416;SDS011;67715;46.170;6.140;2023-02-13T17:22:17;49.80;;;27.02;;
78416;SDS011;67715;46.170;6.140;2023-02-13T17:24:44;47.10;;;27.02;;
78416;SDS011;67715;46.170;6.140;2023-02-13T17:27:10;49.93;;;27.10;;
78416;SDS011;67715;46.170;6.140;2023-02-13T17:29:36;48.97;;;26.75;;
78416;SDS011;67715;46.170;6.140;2023-02-13T17:32:01;50.70;;;27.27;;
78416;SDS011;67715;46.170;6.140;2023-02-13T17:34:26;50.50;;;26.85;;
78416;SDS011;67715;46.170;6.140;2023-02-13T17:36:52;45.93;;;25.80;;
78416;SDS011;67715;46.170;6.140;2023-02-13T17:39:17;48.97;;;26.60;;
78416;SDS011;67715;46.170;6.140;2023-02-13T17:41:42;53.63;;;26.47;;
78416;SDS011;67715;46.170;6.140;2023-02-13T17:44:10;51.20;;;25.30;;
78416;SDS011;67715;46.170;6.140;2023-02-13T17:46:36;54.58;;;28.23;;
78416;SDS011;67715;46.170;6.140;2023-02-13T17:49:02;54.67;;;27.63;;
78416;SDS011;67715;46.170;6.140;2023-02-13T17:51:28;49.22;;;26.65;;
78416;SDS011;67715;46.170;6.140;2023-02-13T17:53:54;52.20;;;27.25;;
78416;SDS011;67715;46.170;6.140;2023-02-13T17:56:20;48.25;;;27.08;;
78416;SDS011;67715;46.170;6.140;2023-02-13T17:58:45;53.37;;;26.80;;
78416;SDS011;67715;46.170;6.140;2023-02-13T18:01:11;53.15;;;28.63;;
78416;SDS011;67715;46.170;6.140;2023-02-13T18:03:36;51.75;;;27.20;;
78416;SDS011;67715;46.170;6.140;2023-02-13T18:06:03;54.75;;;28.73;;
78416;SDS011;67715;46.170;6.140;2023-02-13T18:08:28;53.95;;;30.98;;
78416;SDS011;67715;46.170;6.140;2023-02-13T18:10:54;56.53;;;27.80;;
78416;SDS011;67715;46.170;6.140;2023-02-13T18:13:19;61.50;;;33.17;;
78416;SDS011;67715;46.170;6.140;2023-02-13T18:15:44;60.10;;;32.93;;
78416;SDS011;67715;46.170;6.140;2023-02-13T18:18:11;60.60;;;30.77;;
78416;SDS011;67715;46.170;6.140;2023-02-13T18:20:39;69.40;;;31.98;;
78416;SDS011;67715;46.170;6.140;2023-02-13T18:23:04;63.20;;;33.80;;
78416;SDS011;67715;46.170;6.140;2023-02-13T18:25:31;65.28;;;34.92;;
78416;SDS011;67715;46.170;6.140;2023-02-13T18:27:56;79.13;;;39.30;;
78416;SDS011;67715;46.170;6.140;2023-02-13T18:30:21;75.00;;;35.87;;
78416;SDS011;67715;46.170;6.140;2023-02-13T18:32:50;60.42;;;30.20;;
78416;SDS011;67715;46.170;6.140;2023-02-13T18:35:17;53.80;;;28.20;;
78416;SDS011;67715;46.170;6.140;2023-02-13T18:37:43;52.30;;;25.80;;
78416;SDS011;67715;46.170;6.140;2023-02-13T18:40:08;48.28;;;25.75;;
78416;SDS011;67715;46.170;6.140;2023-02-13T18:42:34;51.47;;;27.08;;
78416;SDS011;67715;46.170;6.140;2023-02-13T18:45:00;47.35;;;24.80;;
78416;SDS011;67715;46.170;6.140;2023-02-13T18:47:25;49.33;;;25.95;;
78416;SDS011;67715;46.170;6.140;2023-02-13T18:49:50;46.43;;;26.40;;
78416;SDS011;67715;46.170;6.140;2023-02-13T18:52:16;46.87;;;24.17;;
78416;SDS011;67715;46.170;6.140;2023-02-13T18:54:41;48.63;;;24.90;;
78416;SDS011;67715;46.170;6.140;2023-02-13T18:57:06;50.00;;;23.60;;
78416;SDS011;67715;46.170;6.140;2023-02-13T18:59:32;51.97;;;24.50;;
78416;SDS011;67715;46.170;6.140;2023-02-13T19:01:57;43.87;;;25.50;;
78416;SDS011;67715;46.170;6.140;2023-02-13T19:04:22;50.90;;;24.43;;
78416;SDS011;67715;46.170;6.140;2023-02-13T19:06:48;57.20;;;26.33;;
78416;SDS011;67715;46.170;6.140;2023-02-13T19:09:13;57.60;;;29.07;;
78416;SDS011;67715;46.170;6.140;2023-02-13T19:11:38;57.83;;;31.03;;
78416;SDS011;67715;46.170;6.140;2023-02-13T19:14:05;56.38;;;28.42;;
78416;SDS011;67715;46.170;6.140;2023-02-13T19:16:31;62.60;;;31.42;;